Time;durP1;ratioP1;P1;durP2;ratioP2;P2;SDS_P1;SDS_P2;PMS_P1;PMS_P2;Temp;Humidity;BMP_temperature;BMP_pressure;BME280_temperature;BME280_humidity;BME280_pressure;Samples;Min_cycle;Max_cycle;Signal;HPM_P1;HPM_P2
2020/12/28 00:01:59;;;;;;;1.20;1.10;;;5.70;1.00;;;;;;5075187;28;20207;-76
2020/12/28 00:04:58;;;;;;;1.30;1.20;;;5.70;1.00;;;;;;5075184;28;20761;-78
2020/12/28 00:10:46;;;;;;;4.50;1.20;;;5.70;1.00;;;;;;5074719;28;20238;-78
2020/12/28 00:13:46;;;;;;;1.00;0.93;;;5.80;1.00;;;;;;5074671;28;20179;-78
2020/12/28 00:16:58;;;;;;;1.13;0.80;;;5.80;1.00;;;;;;5091821;28;20473;-78
2020/12/28 00:19:28;;;;;;;0.70;0.60;;;5.90;1.00;;;;;;5080492;28;20504;-77
2020/12/28 00:22:28;;;;;;;0.60;0.60;;;5.90;1.00;;;;;;5074250;28;20437;-78
2020/12/28 00:28:28;;;;;;;1.00;0.68;;;5.90;1.00;;;;;;5074552;28;20790;-78
2020/12/28 00:31:28;;;;;;;0.70;0.68;;;6.00;1.00;;;;;;5081200;28;20189;-78
2020/12/28 00:34:02;;;;;;;1.73;0.60;;;6.00;1.00;;;;;;5084546;28;20174;-76
2020/12/28 00:36:40;;;;;;;1.03;0.63;;;6.00;1.00;;;;;;5074537;28;20280;-78
2020/12/28 00:42:31;;;;;;;0.80;0.67;;;6.10;1.00;;;;;;5092900;28;20965;-78
2020/12/28 00:45:22;;;;;;;0.60;0.60;;;6.10;1.00;;;;;;5092456;28;20409;-78
2020/12/28 00:48:28;;;;;;;1.90;0.70;;;6.20;1.00;;;;;;5093871;28;20919;-78
2020/12/28 00:50:58;;;;;;;0.93;0.70;;;6.20;1.00;;;;;;5074477;28;20215;-78
2020/12/28 00:53:52;;;;;;;0.60;0.60;;;6.20;1.00;;;;;;5077206;28;20440;-78
2020/12/28 00:56:34;;;;;;;0.68;0.68;;;6.20;1.00;;;;;;5073633;28;20609;-78
2020/12/28 00:59:28;;;;;;;0.70;0.70;;;6.20;1.00;;;;;;5074479;28;20194;-78
2020/12/28 01:02:16;;;;;;;0.60;0.60;;;6.20;1.00;;;;;;5081228;28;20451;-78
2020/12/28 01:05:10;;;;;;;1.10;0.73;;;6.20;1.00;;;;;;5087814;28;20194;-78
2020/12/28 01:07:46;;;;;;;1.37;0.60;;;6.20;1.00;;;;;;5074019;28;20171;-78
2020/12/28 01:13:52;;;;;;;0.70;0.70;;;6.30;1.00;;;;;;5073383;28;20396;-78
2020/12/28 01:16:28;;;;;;;0.63;0.50;;;6.20;1.00;;;;;;5076571;28;20416;-76
2020/12/28 01:19:05;;;;;;;0.60;0.60;;;6.20;1.00;;;;;;5094438;28;20380;-76
2020/12/28 01:21:46;;;;;;;1.23;0.60;;;6.30;1.00;;;;;;5094488;28;20416;-76
2020/12/28 01:24:12;;;;;;;0.60;0.60;;;6.20;1.00;;;;;;5075030;28;20984;-76
2020/12/28 01:26:52;;;;;;;0.60;0.60;;;6.20;1.00;;;;;;5089503;28;20495;-76
2020/12/28 01:29:40;;;;;;;0.80;0.80;;;6.30;1.00;;;;;;5089194;28;20167;-76
2020/12/28 01:32:28;;;;;;;0.60;0.60;;;6.30;1.00;;;;;;5093571;28;20444;-76
2020/12/28 01:34:53;;;;;;;0.70;0.70;;;6.30;1.00;;;;;;5074069;28;20496;-76
2020/12/28 01:37:28;;;;;;;1.53;0.70;;;6.30;1.00;;;;;;5074528;28;20527;-76
2020/12/28 01:39:58;;;;;;;0.50;0.50;;;6.30;1.00;;;;;;5093788;28;20513;-76
2020/12/28 01:42:40;;;;;;;0.60;0.60;;;6.30;1.00;;;;;;5093683;28;20428;-76
2020/12/28 01:45:16;;;;;;;0.60;0.60;;;6.20;1.00;;;;;;5074561;28;20851;-76
2020/12/28 01:48:04;;;;;;;0.50;0.50;;;6.20;1.00;;;;;;5073706;28;20436;-76
2020/12/28 01:50:58;;;;;;;0.60;0.60;;;6.20;1.00;;;;;;5074894;28;20490;-78
2020/12/28 01:53:58;;;;;;;0.80;0.70;;;6.10;1.00;;;;;;5081874;28;20183;-78
2020/12/28 02:00:16;;;;;;;0.73;0.50;;;6.10;1.00;;;;;;5076899;28;20862;-78
2020/12/28 02:03:06;;;;;;;0.40;0.40;;;6.10;1.00;;;;;;5077215;28;20440;-78
2020/12/28 02:05:58;;;;;;;0.60;0.60;;;6.20;1.00;;;;;;5077889;28;20397;-78
2020/12/28 02:08:34;;;;;;;2.15;0.65;;;6.10;1.00;;;;;;5077259;28;20443;-78
2020/12/28 02:14:22;;;;;;;0.68;0.68;;;6.10;1.00;;;;;;5076475;28;20818;-78
2020/12/28 02:16:58;;;;;;;0.80;0.70;;;6.10;1.00;;;;;;5076966;28;20160;-78
2020/12/28 02:19:24;;;;;;;0.90;0.60;;;6.00;1.00;;;;;;5075613;28;20175;-79
2020/12/28 02:22:28;;;;;;;0.70;0.60;;;6.10;1.00;;;;;;5084537;28;20802;-76
2020/12/28 02:24:53;;;;;;;0.53;0.53;;;6.00;1.00;;;;;;5094122;28;20151;-76
2020/12/28 02:27:19;;;;;;;0.70;0.60;;;6.10;1.00;;;;;;5076619;28;20405;-76
2020/12/28 02:29:46;;;;;;;0.60;0.60;;;6.10;1.00;;;;;;5076963;28;20238;-76
2020/12/28 02:32:34;;;;;;;0.73;0.67;;;6.20;1.00;;;;;;5076787;28;20159;-77
2020/12/28 02:35:08;;;;;;;1.17;1.07;;;6.20;1.00;;;;;;5096754;28;20416;-78
2020/12/28 02:37:42;;;;;;;1.10;0.80;;;6.10;1.00;;;;;;5085710;28;20416;-76
2020/12/28 02:40:07;;;;;;;0.70;0.70;;;6.10;1.00;;;;;;5076759;28;20420;-76
2020/12/28 02:42:46;;;;;;;0.93;0.70;;;6.10;1.00;;;;;;5076234;28;20441;-76
2020/12/28 02:45:28;;;;;;;0.60;0.60;;;6.10;1.00;;;;;;5083766;28;20162;-76
2020/12/28 02:48:10;;;;;;;3.13;0.90;;;6.20;1.00;;;;;;5081618;28;20786;-76
2020/12/28 02:50:46;;;;;;;0.60;0.60;;;6.10;1.00;;;;;;5090460;28;20408;-78
2020/12/28 02:53:28;;;;;;;3.27;0.60;;;6.20;1.00;;;;;;5077158;28;20420;-78
2020/12/28 02:56:28;;;;;;;0.70;0.70;;;6.20;1.00;;;;;;5085334;28;20404;-78
2020/12/28 02:59:04;;;;;;;0.50;0.50;;;6.10;1.00;;;;;;5080107;28;20801;-78
2020/12/28 03:05:22;;;;;;;0.45;0.40;;;6.10;1.00;;;;;;5092390;28;20198;-78
2020/12/28 03:07:58;;;;;;;0.60;0.53;;;6.10;1.00;;;;;;5083945;28;20540;-76
2020/12/28 03:10:24;;;;;;;0.50;0.50;;;6.10;1.00;;;;;;5075536;28;20397;-76
2020/12/28 03:12:52;;;;;;;0.40;0.40;;;6.00;1.00;;;;;;5076141;28;20435;-76
2020/12/28 03:15:22;;;;;;;0.50;0.43;;;6.00;1.00;;;;;;5094971;28;20261;-76
2020/12/28 03:17:58;;;;;;;0.40;0.40;;;6.10;1.00;;;;;;5088502;28;20405;-76
2020/12/28 03:20:28;;;;;;;0.60;0.47;;;6.10;1.00;;;;;;5075987;28;20492;-78
2020/12/28 03:22:58;;;;;;;1.47;0.50;;;6.00;1.00;;;;;;5076139;28;20517;-75
2020/12/28 03:25:28;;;;;;;0.40;0.40;;;6.00;1.00;;;;;;5095129;28;20420;-76
2020/12/28 03:27:54;;;;;;;1.17;0.50;;;6.10;1.00;;;;;;5096043;28;20875;-76
2020/12/28 03:30:28;;;;;;;0.40;0.40;;;6.10;1.00;;;;;;5081345;28;20417;-76
2020/12/28 03:32:58;;;;;;;0.30;0.30;;;6.00;1.00;;;;;;5076167;28;20193;-77
2020/12/28 03:35:28;;;;;;;0.40;0.40;;;6.00;1.00;;;;;;5074002;28;20771;-76
2020/12/28 03:37:58;;;;;;;0.43;0.43;;;6.00;1.00;;;;;;5076025;28;20922;-76
2020/12/28 03:40:24;;;;;;;0.30;0.30;;;6.10;1.00;;;;;;5089487;28;20420;-76
2020/12/28 03:43:10;;;;;;;0.40;0.40;;;6.10;1.00;;;;;;5093724;28;20503;-76
2020/12/28 03:45:52;;;;;;;0.40;0.37;;;6.10;1.00;;;;;;5093301;28;20441;-76
2020/12/28 03:48:18;;;;;;;0.60;0.40;;;6.10;1.00;;;;;;5094739;28;20412;-76
2020/12/28 03:50:58;;;;;;;0.50;0.50;;;6.10;1.00;;;;;;5075942;28;20479;-78
2020/12/28 03:53:28;;;;;;;1.53;0.40;;;6.20;1.00;;;;;;5077400;28;20182;-78
2020/12/28 03:55:58;;;;;;;0.43;0.43;;;6.20;1.00;;;;;;5090002;28;20425;-78
2020/12/28 03:58:24;;;;;;;0.40;0.40;;;6.20;1.00;;;;;;5077259;28;20437;-78
2020/12/28 04:01:28;;;;;;;0.50;0.50;;;6.20;1.00;;;;;;5074790;28;20775;-78
2020/12/28 04:04:28;;;;;;;0.43;0.40;;;6.20;1.00;;;;;;5074968;28;20186;-78
2020/12/28 04:06:54;;;;;;;0.73;0.73;;;;;;;;;;5075549;28;20405;-76
2020/12/28 04:09:28;;;;;;;0.60;0.60;;;6.20;1.00;;;;;;5075382;28;20880;-76
2020/12/28 04:11:58;;;;;;;0.60;0.60;;;6.20;1.00;;;;;;5075080;28;20925;-76
2020/12/28 04:14:28;;;;;;;0.50;0.50;;;6.30;1.00;;;;;;5076418;28;21000;-76
2020/12/28 04:17:28;;;;;;;0.80;0.73;;;6.30;1.00;;;;;;5074788;28;20504;-76
2020/12/28 04:19:59;;;;;;;0.77;0.63;;;;;;;;;;5074809;28;20386;-76
2020/12/28 04:22:28;;;;;;;0.53;0.53;;;6.30;1.00;;;;;;5072557;28;20531;-79
2020/12/28 04:24:58;;;;;;;0.57;0.57;;;6.30;1.00;;;;;;5074454;28;20413;-78
2020/12/28 04:27:28;;;;;;;0.60;0.60;;;6.30;1.00;;;;;;5074427;28;20860;-78
2020/12/28 04:29:58;;;;;;;0.80;0.80;;;6.40;1.00;;;;;;5074129;28;20888;-79
2020/12/28 04:32:24;;;;;;;0.60;0.60;;;6.30;1.00;;;;;;5090425;28;20428;-78
2020/12/28 04:34:52;;;;;;;0.67;0.60;;;6.30;1.00;;;;;;5074360;28;20405;-79
2020/12/28 04:37:18;;;;;;;0.60;0.60;;;6.30;1.00;;;;;;5074447;28;20178;-78
2020/12/28 04:39:44;;;;;;;0.60;0.60;;;;;;;;;;5073796;28;20397;-78
2020/12/28 04:42:40;;;;;;;0.80;0.60;;;6.40;1.00;;;;;;5074343;28;20199;-78
2020/12/28 04:45:28;;;;;;;0.50;0.50;;;6.40;1.00;;;;;;5072826;28;20429;-78
2020/12/28 04:48:31;;;;;;;0.50;0.50;;;6.40;1.00;;;;;;5074146;28;20416;-78
2020/12/28 04:51:01;;;;;;;0.50;0.50;;;6.40;1.00;;;;;;5074256;28;20413;-76
2020/12/28 04:53:58;;;;;;;0.60;0.60;;;6.30;1.00;;;;;;5079595;28;20837;-78
2020/12/28 04:56:58;;;;;;;0.60;0.60;;;6.30;1.00;;;;;;5073956;28;20475;-78
2020/12/28 04:59:53;;;;;;;0.70;0.60;;;6.40;1.00;;;;;;5074126;28;20413;-79
2020/12/28 05:02:28;;;;;;;0.60;0.60;;;6.40;1.00;;;;;;5082066;28;20466;-78
2020/12/28 05:05:13;;;;;;;0.60;0.60;;;6.40;1.00;;;;;;5083778;28;20904;-78
2020/12/28 05:07:52;;;;;;;1.00;0.80;;;6.40;1.00;;;;;;5088502;28;20887;-78
2020/12/28 05:10:22;;;;;;;0.70;0.70;;;6.40;1.00;;;;;;5087905;28;20985;-78
2020/12/28 05:13:06;;;;;;;0.50;0.50;;;6.40;1.00;;;;;;5073866;28;20425;-78
2020/12/28 05:15:55;;;;;;;0.50;0.50;;;6.40;1.00;;;;;;5073701;28;20502;-78
2020/12/28 05:18:28;;;;;;;0.60;0.60;;;6.40;1.00;;;;;;5072422;28;20417;-78
2020/12/28 05:20:58;;;;;;;0.60;0.60;;;6.40;1.00;;;;;;5072449;28;20401;-79
2020/12/28 05:23:32;;;;;;;0.73;0.73;;;6.40;1.00;;;;;;5074170;28;20437;-77
2020/12/28 05:25:59;;;;;;;2.50;0.60;;;6.40;1.00;;;;;;5073514;28;20413;-77
2020/12/28 05:28:36;;;;;;;0.50;0.50;;;6.40;1.00;;;;;;5074071;28;20398;-76
2020/12/28 05:31:35;;;;;;;0.57;0.50;;;6.40;1.00;;;;;;5073065;28;20443;-76
2020/12/28 05:34:37;;;;;;;0.50;0.50;;;6.30;1.00;;;;;;5072895;28;20914;-76
2020/12/28 05:37:28;;;;;;;0.50;0.50;;;6.30;1.00;;;;;;5004037;28;20523;-76
2020/12/28 05:39:58;;;;;;;0.50;0.50;;;6.30;1.00;;;;;;5011962;28;20435;-76
2020/12/28 05:42:28;;;;;;;1.30;0.50;;;6.20;1.00;;;;;;5011326;28;20486;-76
2020/12/28 05:45:09;;;;;;;2.30;0.60;;;6.20;1.00;;;;;;5012024;28;20424;-76
2020/12/28 05:47:43;;;;;;;0.60;0.57;;;6.20;1.00;;;;;;5012506;28;20487;-77
2020/12/28 05:50:09;;;;;;;0.40;0.40;;;6.20;1.00;;;;;;5011551;28;20419;-76
2020/12/28 05:52:59;;;;;;;0.57;0.47;;;6.20;1.00;;;;;;5012306;28;20935;-78
2020/12/28 05:55:30;;;;;;;0.40;0.40;;;6.20;1.00;;;;;;5005465;28;20444;-78
2020/12/28 05:57:59;;;;;;;0.40;0.40;;;6.20;1.00;;;;;;4998573;28;20444;-78
2020/12/28 06:00:28;;;;;;;1.60;0.63;;;6.20;1.00;;;;;;5011483;28;20420;-78
2020/12/28 06:03:12;;;;;;;0.50;0.50;;;6.20;1.00;;;;;;5011049;28;20833;-79
2020/12/28 06:05:58;;;;;;;0.50;0.50;;;6.20;1.00;;;;;;5011309;28;20416;-79
2020/12/28 06:08:28;;;;;;;0.40;0.40;;;6.10;1.00;;;;;;5012018;28;20396;-76
2020/12/28 06:17:38;;;;;;;0.40;0.40;;;6.10;1.00;;;;;;5090896;28;20498;-79
2020/12/28 06:20:16;;;;;;;0.40;0.40;;;6.10;1.00;;;;;;5073047;28;20431;-75
2020/12/28 06:23:03;;;;;;;0.50;0.50;;;6.10;1.00;;;;;;5074006;28;20251;-76
2020/12/28 06:25:52;;;;;;;0.50;0.50;;;6.10;1.00;;;;;;5087153;28;20404;-76
2020/12/28 06:28:26;;;;;;;0.83;0.50;;;6.10;1.00;;;;;;5082334;28;20405;-76
2020/12/28 06:31:05;;;;;;;0.80;0.60;;;6.10;1.00;;;;;;5073319;28;20410;-76
2020/12/28 06:33:48;;;;;;;0.50;0.50;;;6.20;1.00;;;;;;5071723;28;20471;-76
2020/12/28 06:36:17;;;;;;;0.50;0.50;;;6.20;1.00;;;;;;5073291;28;20427;-76
2020/12/28 06:38:54;;;;;;;0.40;0.40;;;6.20;1.00;;;;;;5072950;28;20463;-77
2020/12/28 06:41:30;;;;;;;1.33;0.60;;;6.10;1.00;;;;;;5090889;28;20419;-80
2020/12/28 06:44:01;;;;;;;0.60;0.60;;;6.10;1.00;;;;;;5086191;28;20463;-77
2020/12/28 06:46:27;;;;;;;0.50;0.50;;;6.10;1.00;;;;;;5085989;28;20609;-78
2020/12/28 06:48:53;;;;;;;1.83;0.53;;;6.20;1.00;;;;;;5095013;28;20412;-78
2020/12/28 06:51:22;;;;;;;0.50;0.50;;;6.10;1.00;;;;;;5095623;28;20423;-78
2020/12/28 06:53:55;;;;;;;0.70;0.60;;;6.10;1.00;;;;;;5093191;28;20432;-78
2020/12/28 06:59:58;;;;;;;0.80;0.60;;;6.10;1.00;;;;;;5086538;28;20404;-77
2020/12/28 07:02:24;;;;;;;0.50;0.50;;;6.10;1.00;;;;;;5088120;28;20498;-77
2020/12/28 07:04:52;;;;;;;0.60;0.60;;;6.00;1.00;;;;;;5095431;28;20408;-77
2020/12/28 07:07:19;;;;;;;0.50;0.50;;;6.10;1.00;;;;;;5096143;28;20859;-77
2020/12/28 07:10:30;;;;;;;0.57;0.57;;;6.10;1.00;;;;;;5095798;28;20747;-77
2020/12/28 07:13:08;;;;;;;0.70;0.70;;;6.10;1.00;;;;;;5092376;28;20416;-77
2020/12/28 07:16:18;;;;;;;0.50;0.50;;;6.00;1.00;;;;;;5088628;28;20888;-78
2020/12/28 07:19:03;;;;;;;6.10;0.70;;;6.10;1.00;;;;;;5070790;28;20791;-79
2020/12/28 07:24:59;;;;;;;1.10;0.70;;;6.10;1.00;;;;;;5075843;28;20421;-78
2020/12/28 07:27:46;;;;;;;0.57;0.50;;;6.10;1.00;;;;;;5075763;28;20394;-78
2020/12/28 07:30:28;;;;;;;0.50;0.50;;;6.10;1.00;;;;;;5075921;28;20396;-78
2020/12/28 07:32:58;;;;;;;0.77;0.63;;;6.10;1.00;;;;;;5075594;28;20865;-79
2020/12/28 07:35:29;;;;;;;6.83;0.60;;;6.10;1.00;;;;;;5075390;28;20432;-78
2020/12/28 07:37:59;;;;;;;0.63;0.63;;;6.10;1.00;;;;;;5075428;28;20819;-78
2020/12/28 07:40:29;;;;;;;0.73;0.50;;;6.10;1.00;;;;;;5075769;28;20374;-81
2020/12/28 07:43:22;;;;;;;0.40;0.40;;;6.10;1.00;;;;;;5073989;28;20453;-80
2020/12/28 07:46:28;;;;;;;0.50;0.50;;;6.10;1.00;;;;;;5075330;28;20382;-80
2020/12/28 07:49:18;;;;;;;2.20;0.60;;;6.20;1.00;;;;;;5075575;28;20389;-80
2020/12/28 07:52:24;;;;;;;1.10;0.90;;;6.10;1.00;;;;;;5079557;28;20424;-80
2020/12/28 07:55:16;;;;;;;2.27;0.70;;;6.10;1.00;;;;;;5012929;28;20416;-80
2020/12/28 07:58:22;;;;;;;0.50;0.50;;;6.10;1.00;;;;;;4997361;28;20419;-81
2020/12/28 08:04:58;;;;;;;0.50;0.50;;;6.10;1.00;;;;;;5012971;28;21067;-81
2020/12/28 08:07:35;;;;;;;0.53;0.53;;;6.00;1.00;;;;;;5013475;28;20395;-80
2020/12/28 08:10:22;;;;;;;0.70;0.70;;;6.00;1.00;;;;;;5013667;28;20499;-80
2020/12/28 08:12:59;;;;;;;0.83;0.67;;;6.00;1.00;;;;;;4995197;28;20444;-81
2020/12/28 08:15:32;;;;;;;1.63;0.77;;;6.00;1.00;;;;;;5013009;28;20506;-81
2020/12/28 08:18:13;;;;;;;3.20;0.97;;;6.10;1.00;;;;;;5012202;28;20487;-81
2020/12/28 08:21:07;;;;;;;0.63;0.63;;;6.10;1.00;;;;;;5012072;28;20829;-81
2020/12/28 08:24:28;;;;;;;0.70;0.60;;;6.10;1.00;;;;;;5004030;28;20475;-80
2020/12/28 08:27:29;;;;;;;1.63;1.00;;;6.10;1.00;;;;;;5012240;28;20400;-82
2020/12/28 08:30:09;;;;;;;3.03;0.80;;;6.10;1.00;;;;;;5086789;28;20764;-81
2020/12/28 08:33:28;;;;;;;2.53;0.70;;;6.20;1.00;;;;;;5081217;28;20413;-81
2020/12/28 08:35:58;;;;;;;0.60;0.60;;;6.20;1.00;;;;;;5072937;28;20437;-79
2020/12/28 08:39:09;;;;;;;0.60;0.60;;;6.30;1.00;;;;;;5080495;28;20420;-79
2020/12/28 08:41:58;;;;;;;0.57;0.50;;;6.40;1.00;;;;;;5092702;28;20411;-77
2020/12/28 08:44:42;;;;;;;5.40;0.70;;;6.40;1.00;;;;;;5074304;28;20880;-78
2020/12/28 08:47:25;;;;;;;0.70;0.70;;;6.60;1.00;;;;;;5074044;28;20382;-77
2020/12/28 08:49:58;;;;;;;4.80;0.87;;;6.60;1.00;;;;;;5073978;28;20397;-77
2020/12/28 08:52:29;;;;;;;1.63;1.10;;;6.70;1.00;;;;;;5073838;28;20912;-78
2020/12/28 08:58:29;;;;;;;1.10;1.00;;;6.70;1.00;;;;;;5083248;28;20412;-82
2020/12/28 09:01:03;;;;;;;2.30;0.87;;;6.70;1.00;;;;;;5082223;28;20893;-78
2020/12/28 09:03:58;;;;;;;0.80;0.80;;;6.80;1.00;;;;;;5094075;28;20929;-80
2020/12/28 09:06:29;;;;;;;1.00;1.00;;;6.80;1.00;;;;;;5075855;28;20406;-79
2020/12/28 09:09:28;;;;;;;0.80;0.80;;;;;;;;;;5073304;28;20382;-82
2020/12/28 09:15:35;;;;;;;1.27;0.83;;;6.90;1.00;;;;;;5073736;28;20392;-81
2020/12/28 09:18:01;;;;;;;1.00;0.90;;;7.00;1.00;;;;;;5076988;28;20490;-77
2020/12/28 09:20:29;;;;;;;1.10;1.00;;;7.00;1.00;;;;;;5099327;28;20432;-78
2020/12/28 09:22:54;;;;;;;2.00;1.20;;;7.00;1.00;;;;;;5078824;28;20494;-77
2020/12/28 09:25:20;;;;;;;1.47;1.00;;;7.10;1.00;;;;;;5078202;28;20864;-78
2020/12/28 09:27:46;;;;;;;1.03;1.03;;;7.10;1.00;;;;;;5093063;28;20174;-78
2020/12/28 09:30:17;;;;;;;1.50;1.00;;;;;;;;;;5092590;28;20463;-78
2020/12/28 09:33:16;;;;;;;1.83;1.17;;;7.10;1.00;;;;;;5093689;28;20631;-77
2020/12/28 09:35:42;;;;;;;0.90;0.90;;;7.10;1.00;;;;;;5086157;28;20510;-76
2020/12/28 09:38:11;;;;;;;1.50;1.20;;;7.20;1.00;;;;;;5091777;28;20503;-76
2020/12/28 09:40:40;;;;;;;1.40;1.30;;;7.30;1.00;;;;;;5084610;28;20638;-75
2020/12/28 09:43:41;;;;;;;1.20;1.10;;;7.30;1.00;;;;;;5073295;28;20449;-79
2020/12/28 09:46:28;;;;;;;0.90;0.90;;;7.40;1.00;;;;;;5078676;28;20928;-79
2020/12/28 09:48:54;;;;;;;1.13;1.03;;;7.40;1.00;;;;;;5083510;28;20419;-79
2020/12/28 09:51:43;;;;;;;1.00;0.97;;;7.50;1.00;;;;;;5073321;28;20385;-79
2020/12/28 09:54:34;;;;;;;1.50;1.40;;;7.50;1.00;;;;;;5090247;28;20185;-79
2020/12/28 09:57:16;;;;;;;1.13;1.10;;;7.50;1.00;;;;;;5074744;28;20458;-76
2020/12/28 09:59:58;;;;;;;2.93;1.80;;;7.50;1.00;;;;;;5073487;28;20801;-76
2020/12/28 10:02:24;;;;;;;1.40;1.23;;;7.50;1.00;;;;;;5073264;28;20440;-77
2020/12/28 10:04:53;;;;;;;2.03;1.20;;;7.40;1.00;;;;;;5073493;28;20394;-77
2020/12/28 10:07:37;;;;;;;1.50;1.40;;;7.50;1.00;;;;;;5073468;28;20160;-76
2020/12/28 10:10:11;;;;;;;1.20;1.20;;;7.50;1.00;;;;;;5073661;28;20392;-77
2020/12/28 10:12:41;;;;;;;1.53;1.33;;;7.40;1.00;;;;;;5073356;28;20407;-77
2020/12/28 10:15:07;;;;;;;1.10;1.10;;;7.30;1.00;;;;;;5073124;28;20397;-76
2020/12/28 10:21:23;;;;;;;1.40;1.30;;;7.40;1.00;;;;;;5096032;28;20450;-76
2020/12/28 10:24:05;;;;;;;2.07;0.90;;;7.80;1.00;;;;;;5092783;28;20563;-77
2020/12/28 10:26:30;;;;;;;1.40;1.30;;;8.00;1.00;;;;;;5094172;28;20416;-76
2020/12/28 10:29:16;;;;;;;1.30;1.20;;;8.50;1.00;;;;;;5081334;28;20820;-77
2020/12/28 10:31:47;;;;;;;1.03;1.00;;;8.80;1.00;;;;;;5079869;28;20191;-76
2020/12/28 10:34:12;;;;;;;1.03;0.87;;;9.10;1.00;;;;;;5085580;28;20486;-76
2020/12/28 10:36:38;;;;;;;1.90;1.10;;;9.10;1.00;;;;;;5083449;28;20429;-76
2020/12/28 10:39:04;;;;;;;0.87;0.83;;;9.60;1.00;;;;;;5089274;28;20618;-76
2020/12/28 10:41:41;;;;;;;1.10;1.00;;;9.70;1.00;;;;;;5078506;28;20183;-76
2020/12/28 10:44:10;;;;;;;1.27;0.93;;;10.00;1.00;;;;;;5081956;28;20250;-75
2020/12/28 10:46:41;;;;;;;0.90;0.90;;;10.10;1.00;;;;;;5076340;28;20778;-78
2020/12/28 10:49:17;;;;;;;1.00;0.90;;;10.20;1.00;;;;;;5076528;28;20394;-75
2020/12/28 10:52:10;;;;;;;0.93;0.93;;;10.20;1.00;;;;;;5076690;28;20925;-76
2020/12/28 10:54:41;;;;;;;0.70;0.70;;;10.20;1.00;;;;;;5076627;28;20398;-76
2020/12/28 10:57:11;;;;;;;0.93;0.77;;;10.20;1.00;;;;;;5093535;28;20440;-75
2020/12/28 10:59:36;;;;;;;0.97;0.73;;;10.30;1.00;;;;;;5096861;28;20408;-75
2020/12/28 11:02:11;;;;;;;2.87;0.83;;;10.20;1.00;;;;;;5096509;28;20730;-75
2020/12/28 11:04:42;;;;;;;4.47;1.00;;;10.10;1.00;;;;;;5096425;28;20620;-75
2020/12/28 11:07:46;;;;;;;0.80;0.63;;;10.20;1.00;;;;;;5077295;28;20408;-76
2020/12/28 11:10:12;;;;;;;2.70;1.20;;;10.30;1.00;;;;;;5076659;28;20412;-75
2020/12/28 11:19:21;;;;;;;1.53;0.80;;;10.40;1.00;;;;;;5092468;28;20435;-78
2020/12/28 11:25:11;;;;;;;37.57;10.50;;;10.10;1.00;;;;;;5089591;28;20198;-78
2020/12/28 11:27:41;;;;;;;68.10;17.33;;;10.10;1.00;;;;;;5095501;28;20483;-75
2020/12/28 11:30:17;;;;;;;93.17;25.20;;;10.00;1.00;;;;;;5090940;28;20409;-75
2020/12/28 11:32:47;;;;;;;29.33;6.57;;;9.80;1.00;;;;;;5081057;28;20428;-74
2020/12/28 11:35:23;;;;;;;69.37;11.93;;;9.80;1.00;;;;;;5093025;28;20423;-74
2020/12/28 11:37:48;;;;;;;71.67;13.57;;;10.10;1.00;;;;;;5077532;28;20492;-74
2020/12/28 11:40:23;;;;;;;100.63;14.90;;;10.10;1.00;;;;;;5090943;28;20998;-75
2020/12/28 11:46:11;;;;;;;65.43;11.20;;;10.10;1.00;;;;;;5075184;28;20520;-78
2020/12/28 11:49:16;;;;;;;49.73;11.23;;;10.10;1.00;;;;;;5075250;28;20425;-78
2020/12/28 11:51:51;;;;;;;77.90;13.37;;;10.20;1.00;;;;;;5075160;28;20390;-78
2020/12/28 11:54:17;;;;;;;34.80;6.60;;;;;;;;;;5075169;28;20403;-79
2020/12/28 12:00:05;;;;;;;23.27;5.57;;;10.10;1.00;;;;;;5074827;28;20408;-78
2020/12/28 12:03:04;;;;;;;40.83;7.47;;;10.30;1.00;;;;;;5074858;28;20449;-79
2020/12/28 12:05:35;;;;;;;59.90;10.70;;;10.30;1.00;;;;;;5075031;28;20242;-79
2020/12/28 12:08:34;;;;;;;25.90;5.30;;;10.30;1.00;;;;;;5074957;28;20389;-78
2020/12/28 12:11:17;;;;;;;43.00;7.37;;;10.10;1.00;;;;;;5074742;28;20505;-79
2020/12/28 12:13:42;;;;;;;58.67;9.23;;;10.10;1.00;;;;;;5074821;28;20418;-74
2020/12/28 12:16:46;;;;;;;34.33;7.13;;;10.20;1.00;;;;;;5084928;28;20412;-77
2020/12/28 12:19:40;;;;;;;42.93;7.80;;;10.20;1.00;;;;;;5075012;28;20200;-76
2020/12/28 12:22:23;;;;;;;20.77;4.63;;;10.60;1.00;;;;;;5077202;28;20413;-76
2020/12/28 12:24:48;;;;;;;16.23;3.90;;;10.60;1.00;;;;;;5081887;28;20495;-76
2020/12/28 12:27:23;;;;;;;8.90;1.80;;;10.50;1.00;;;;;;5085014;28;20526;-77
2020/12/28 12:29:48;;;;;;;1.83;1.23;;;10.30;1.00;;;;;;5075898;28;20219;-76
2020/12/28 12:35:35;;;;;;;3.90;0.93;;;10.30;1.00;;;;;;5084677;28;20239;-75
2020/12/28 12:38:11;;;;;;;1.53;1.10;;;10.40;1.00;;;;;;5094688;28;20396;-75
2020/12/28 12:40:36;;;;;;;1.60;1.20;;;10.50;1.00;;;;;;5085260;28;20590;-75
2020/12/28 12:43:17;;;;;;;1.10;1.10;;;10.40;1.00;;;;;;5073871;28;20502;-78
2020/12/28 12:45:42;;;;;;;0.97;0.93;;;10.30;1.00;;;;;;5074033;28;20680;-78
2020/12/28 12:52:07;;;;;;;1.00;1.00;;;10.30;1.00;;;;;;5094160;28;20174;-80
2020/12/28 12:57:54;;;;;;;0.90;0.90;;;9.70;1.00;;;;;;5079300;28;20472;-76
2020/12/28 13:00:23;;;;;;;1.00;1.00;;;9.70;1.00;;;;;;5114794;28;20965;-77
2020/12/28 13:02:48;;;;;;;0.90;0.80;;;9.60;1.00;;;;;;5114469;28;20189;-77
2020/12/28 13:05:23;;;;;;;1.07;1.03;;;9.50;1.00;;;;;;5100170;28;20417;-76
2020/12/28 13:07:59;;;;;;;1.27;0.90;;;9.50;1.00;;;;;;5082329;28;20648;-77
2020/12/28 13:10:24;;;;;;;0.90;0.90;;;9.50;1.00;;;;;;5079538;28;20409;-76
2020/12/28 13:12:50;;;;;;;2.80;1.27;;;9.40;1.00;;;;;;5077683;28;20436;-77
2020/12/28 13:15:16;;;;;;;1.10;1.10;;;9.20;1.00;;;;;;5092268;28;20166;-76
2020/12/28 13:17:41;;;;;;;1.00;1.00;;;9.20;1.00;;;;;;5085566;28;20166;-77
2020/12/28 13:20:07;;;;;;;1.27;1.20;;;;;;;;;;5094053;28;20517;-75
2020/12/28 13:22:35;;;;;;;1.27;1.17;;;9.10;1.00;;;;;;5078639;28;20221;-76
2020/12/28 13:25:00;;;;;;;0.97;0.97;;;9.00;1.00;;;;;;5084173;28;20409;-76
2020/12/28 13:31:11;;;;;;;1.13;1.13;;;8.90;1.00;;;;;;5085039;28;20239;-78
2020/12/28 13:33:41;;;;;;;1.20;1.00;;;8.80;1.00;;;;;;5077765;28;20439;-76
2020/12/28 13:36:35;;;;;;;1.67;1.00;;;8.80;1.00;;;;;;5072018;28;20440;-77
2020/12/28 13:39:01;;;;;;;1.30;1.20;;;8.70;1.00;;;;;;5085627;28;20419;-78
2020/12/28 13:41:29;;;;;;;1.80;1.10;;;8.40;1.00;;;;;;5079760;28;20512;-78
2020/12/28 13:43:59;;;;;;;1.77;1.20;;;8.40;1.00;;;;;;5079918;28;20483;-76
2020/12/28 13:46:24;;;;;;;4.10;1.27;;;8.40;1.00;;;;;;5093390;28;20417;-76
2020/12/28 13:49:00;;;;;;;1.33;1.10;;;8.30;1.00;;;;;;5084497;28;20412;-78
2020/12/28 13:51:46;;;;;;;1.03;1.03;;;8.30;1.00;;;;;;5072995;28;20594;-80
2020/12/28 13:54:17;;;;;;;1.67;1.20;;;8.20;1.00;;;;;;5074539;28;20396;-80
2020/12/28 13:56:42;;;;;;;1.50;1.40;;;8.20;1.00;;;;;;5090930;28;20404;-80
2020/12/28 13:59:09;;;;;;;1.73;1.10;;;;;;;;;;5080160;28;20419;-80
2020/12/28 14:01:58;;;;;;;0.80;0.80;;;7.90;1.00;;;;;;5075767;28;20174;-80
2020/12/28 14:04:41;;;;;;;1.00;1.00;;;7.60;1.00;;;;;;5076820;28;20838;-80
2020/12/28 14:07:11;;;;;;;0.70;0.70;;;;;;;;;;5077331;28;20486;-78
2020/12/28 14:12:59;;;;;;;0.67;0.67;;;7.20;1.00;;;;;;5076876;28;20400;-79
2020/12/28 14:19:05;;;;;;;0.60;0.60;;;7.20;1.00;;;;;;5097237;28;20193;-75
2020/12/28 14:21:41;;;;;;;1.00;0.70;;;7.20;1.00;;;;;;5081182;28;21134;-76
2020/12/28 14:24:11;;;;;;;0.67;0.67;;;7.10;1.00;;;;;;5078090;28;20436;-76
2020/12/28 14:26:37;;;;;;;0.60;0.60;;;;;;;;;;5077234;28;20450;-74
2020/12/28 14:29:03;;;;;;;1.50;0.63;;;;;;;;;;5082622;28;20428;-75
2020/12/28 14:34:51;;;;;;;0.70;0.70;;;6.90;1.00;;;;;;5080532;28;20416;-77
2020/12/28 14:37:17;;;;;;;0.83;0.83;;;6.90;1.00;;;;;;5077476;28;20432;-76
2020/12/28 14:39:53;;;;;;;0.80;0.80;;;6.90;1.00;;;;;;5076807;28;20194;-77
2020/12/28 14:46:31;;;;;;;0.70;0.70;;;6.70;1.00;;;;;;5088762;28;20451;-76
2020/12/28 14:48:59;;;;;;;1.17;1.07;;;6.50;1.00;;;;;;4994985;28;20828;-76
2020/12/28 14:51:29;;;;;;;0.80;0.80;;;6.50;1.00;;;;;;4995023;28;20409;-76
2020/12/28 14:54:22;;;;;;;0.80;0.80;;;6.50;1.00;;;;;;4995266;28;20862;-77
2020/12/28 14:57:05;;;;;;;2.23;1.10;;;6.50;1.00;;;;;;4995194;28;20459;-76
2020/12/28 15:00:10;;;;;;;0.80;0.80;;;6.40;1.00;;;;;;4995291;28;20404;-77
2020/12/28 15:02:41;;;;;;;0.87;0.87;;;6.40;1.00;;;;;;4994614;28;20452;-77
2020/12/28 15:05:07;;;;;;;1.00;1.00;;;6.40;1.00;;;;;;4993946;28;20903;-76
2020/12/28 15:07:47;;;;;;;0.90;0.90;;;6.40;1.00;;;;;;5003746;28;20420;-77
2020/12/28 15:13:35;;;;;;;0.80;0.80;;;6.40;1.00;;;;;;4994438;28;20440;-76
2020/12/28 15:16:28;;;;;;;0.87;0.70;;;6.30;1.00;;;;;;4994964;28;20417;-80
2020/12/28 15:25:37;;;;;;;2.10;1.07;;;5.90;1.00;;;;;;5075943;28;20396;-80
2020/12/28 15:31:25;;;;;;;1.02;1.02;;;5.80;1.00;;;;;;5075302;28;20200;-79
2020/12/28 15:37:12;;;;;;;1.07;0.97;;;5.80;1.00;;;;;;5095770;28;20180;-78
2020/12/28 15:46:29;;;;;;;0.90;0.90;;;5.60;1.00;;;;;;5085462;28;20407;-75
2020/12/28 15:48:55;;;;;;;1.27;1.15;;;5.50;1.00;;;;;;5095913;28;20154;-76
2020/12/28 15:51:35;;;;;;;2.00;1.00;;;5.50;1.00;;;;;;5095928;28;20158;-76
2020/12/28 15:54:40;;;;;;;1.33;1.23;;;5.50;1.00;;;;;;5081372;28;20170;-76
2020/12/28 15:57:34;;;;;;;3.40;0.90;;;5.50;1.00;;;;;;5075220;28;20159;-76
2020/12/28 16:03:50;;;;;;;1.00;1.00;;;5.50;1.00;;;;;;5074991;28;20677;-77
2020/12/28 16:09:37;;;;;;;1.27;1.17;;;5.40;1.00;;;;;;5082186;28;20190;-76
2020/12/28 16:12:35;;;;;;;1.23;1.20;;;5.40;1.00;;;;;;5074898;28;20155;-80